sensor_id;sensor_type;location;lat;lon;timestamp;pressure;altitude;pressure_sealevel;temperature;humidity
7168;BME280;3625;51.762;14.320;2023-10-31T00:00:13;98701.91;;;13.26;100.00
7168;BME280;3625;51.762;14.320;2023-10-31T00:02:42;98691.38;;;13.25;100.00
7168;BME280;3625;51.762;14.320;2023-10-31T00:05:10;98686.94;;;13.25;100.00
7168;BME280;3625;51.762;14.320;2023-10-31T00:07:39;98681.63;;;13.25;100.00
7168;BME280;3625;51.762;14.320;2023-10-31T00:10:08;98689.59;;;13.25;100.00
7168;BME280;3625;51.762;14.320;2023-10-31T00:12:37;98686.84;;;13.27;100.00
7168;BME280;3625;51.762;14.320;2023-10-31T00:15:08;98691.31;;;13.26;100.00
7168;BME280;3625;51.762;14.320;2023-10-31T00:17:37;98671.09;;;13.23;100.00
7168;BME280;3625;51.762;14.320;2023-10-31T00:20:07;98686.19;;;13.23;100.00
7168;BME280;3625;51.762;14.320;2023-10-31T00:22:36;98685.34;;;13.23;100.00
7168;BME280;3625;51.762;14.320;2023-10-31T00:25:05;98681.84;;;13.22;100.00
7168;BME280;3625;51.762;14.320;2023-10-31T00:27:34;98679.19;;;13.22;100.00
7168;BME280;3625;51.762;14.320;2023-10-31T00:30:03;98673.00;;;13.21;100.00
7168;BME280;3625;51.762;14.320;2023-10-31T00:32:34;98667.69;;;13.21;100.00
7168;BME280;3625;51.762;14.320;2023-10-31T00:35:03;98668.72;;;13.19;100.00
7168;BME280;3625;51.762;14.320;2023-10-31T00:37:32;98668.91;;;13.16;100.00
7168;BME280;3625;51.762;14.320;2023-10-31T00:40:00;98655.81;;;13.13;100.00
7168;BME280;3625;51.762;14.320;2023-10-31T00:42:30;98655.22;;;13.08;100.00
7168;BME280;3625;51.762;14.320;2023-10-31T00:44:59;98647.25;;;13.08;100.00
7168;BME280;3625;51.762;14.320;2023-10-31T00:47:28;98635.13;;;13.04;100.00
7168;BME280;3625;51.762;14.320;2023-10-31T00:49:59;98644.81;;;13.05;100.00
7168;BME280;3625;51.762;14.320;2023-10-31T00:52:27;98645.84;;;13.02;100.00
7168;BME280;3625;51.762;14.320;2023-10-31T00:54:56;98652.00;;;13.03;100.00
7168;BME280;3625;51.762;14.320;2023-10-31T00:57:25;98639.50;;;13.05;100.00
7168;BME280;3625;51.762;14.320;2023-10-31T00:59:54;98630.59;;;13.06;100.00
7168;BME280;3625;51.762;14.320;2023-10-31T01:02:23;98623.66;;;13.03;100.00
7168;BME280;3625;51.762;14.320;2023-10-31T01:04:52;98625.63;;;13.00;100.00
7168;BME280;3625;51.762;14.320;2023-10-31T01:07:22;98615.09;;;12.98;100.00
7168;BME280;3625;51.762;14.320;2023-10-31T01:09:52;98621.47;;;12.96;100.00
7168;BME280;3625;51.762;14.320;2023-10-31T01:12:21;98618.91;;;12.94;100.00
7168;BME280;3625;51.762;14.320;2023-10-31T01:14:50;98624.41;;;12.91;100.00
7168;BME280;3625;51.762;14.320;2023-10-31T01:17:19;98624.41;;;12.91;100.00
7168;BME280;3625;51.762;14.320;2023-10-31T01:19:48;98620.03;;;12.90;100.00
7168;BME280;3625;51.762;14.320;2023-10-31T01:22:17;98606.03;;;12.88;100.00
7168;BME280;3625;51.762;14.320;2023-10-31T01:24:47;98605.19;;;12.88;100.00
7168;BME280;3625;51.762;14.320;2023-10-31T01:27:16;98614.09;;;12.87;100.00
7168;BME280;3625;51.762;14.320;2023-10-31T01:29:45;98615.88;;;12.86;100.00
7168;BME280;3625;51.762;14.320;2023-10-31T01:32:14;98615.19;;;12.82;100.00
7168;BME280;3625;51.762;14.320;2023-10-31T01:34:49;98619.66;;;12.82;100.00
7168;BME280;3625;51.762;14.320;2023-10-31T01:37:18;98622.31;;;12.82;100.00
7168;BME280;3625;51.762;14.320;2023-10-31T01:39:49;98626.84;;;12.80;100.00
7168;BME280;3625;51.762;14.320;2023-10-31T01:42:18;98631.50;;;12.76;100.00
7168;BME280;3625;51.762;14.320;2023-10-31T01:44:47;98623.72;;;12.73;100.00
7168;BME280;3625;51.762;14.320;2023-10-31T01:47:16;98615.97;;;12.70;100.00
7168;BME280;3625;51.762;14.320;2023-10-31T01:49:45;98610.84;;;12.67;100.00
7168;BME280;3625;51.762;14.320;2023-10-31T01:52:14;98601.44;;;12.62;100.00
7168;BME280;3625;51.762;14.320;2023-10-31T01:54:44;98596.31;;;12.59;100.00
7168;BME280;3625;51.762;14.320;2023-10-31T01:57:15;98594.69;;;12.56;100.00
7168;BME280;3625;51.762;14.320;2023-10-31T01:59:43;98588.63;;;12.54;100.00
7168;BME280;3625;51.762;14.320;2023-10-31T02:02:12;98584.38;;;12.52;100.00
7168;BME280;3625;51.762;14.320;2023-10-31T02:04:41;98580.09;;;12.49;100.00
7168;BME280;3625;51.762;14.320;2023-10-31T02:07:10;98569.50;;;12.49;100.00
7168;BME280;3625;51.762;14.320;2023-10-31T02:09:39;98571.22;;;12.50;100.00
7168;BME280;3625;51.762;14.320;2023-10-31T02:12:08;98559.81;;;12.48;100.00
7168;BME280;3625;51.762;14.320;2023-10-31T02:14:38;98558.88;;;12.49;100.00
7168;BME280;3625;51.762;14.320;2023-10-31T02:17:07;98552.63;;;12.50;100.00
7168;BME280;3625;51.762;14.320;2023-10-31T02:19:35;98548.97;;;12.53;100.00
7168;BME280;3625;51.762;14.320;2023-10-31T02:22:07;98552.47;;;12.53;100.00
7168;BME280;3625;51.762;14.320;2023-10-31T02:24:35;98548.84;;;12.54;100.00
7168;BME280;3625;51.762;14.320;2023-10-31T02:27:04;98543.44;;;12.56;100.00
7168;BME280;3625;51.762;14.320;2023-10-31T02:29:33;98549.50;;;12.58;100.00
7168;BME280;3625;51.762;14.320;2023-10-31T02:32:02;98540.63;;;12.59;100.00
7168;BME280;3625;51.762;14.320;2023-10-31T02:34:31;98540.53;;;12.60;100.00
7168;BME280;3625;51.762;14.320;2023-10-31T02:36:59;98538.72;;;12.61;100.00
7168;BME280;3625;51.762;14.320;2023-10-31T02:39:30;98541.28;;;12.62;100.00
7168;BME280;3625;51.762;14.320;2023-10-31T02:41:59;98534.38;;;12.60;100.00
7168;BME280;3625;51.762;14.320;2023-10-31T02:44:28;98530.78;;;12.61;100.00
7168;BME280;3625;51.762;14.320;2023-10-31T02:46:57;98529.06;;;12.60;100.00
7168;BME280;3625;51.762;14.320;2023-10-31T02:49:26;98533.50;;;12.59;100.00
7168;BME280;3625;51.762;14.320;2023-10-31T02:51:54;98539.69;;;12.60;100.00
7168;BME280;3625;51.762;14.320;2023-10-31T02:54:23;98533.44;;;12.61;100.00
7168;BME280;3625;51.762;14.320;2023-10-31T02:56:53;98536.94;;;12.61;100.00
7168;BME280;3625;51.762;14.320;2023-10-31T02:59:22;98539.59;;;12.61;100.00
7168;BME280;3625;51.762;14.320;2023-10-31T03:01:51;98550.28;;;12.60;100.00
7168;BME280;3625;51.762;14.320;2023-10-31T03:04:20;98552.94;;;12.60;100.00
7168;BME280;3625;51.762;14.320;2023-10-31T03:06:49;98551.06;;;12.62;100.00
7168;BME280;3625;51.762;14.320;2023-10-31T03:09:18;98543.19;;;12.60;100.00
7168;BME280;3625;51.762;14.320;2023-10-31T03:11:47;98542.25;;;12.61;100.00
7168;BME280;3625;51.762;14.320;2023-10-31T03:14:17;98548.28;;;12.63;100.00
7168;BME280;3625;51.762;14.320;2023-10-31T03:16:49;98539.38;;;12.64;100.00
7168;BME280;3625;51.762;14.320;2023-10-31T03:19:18;98550.84;;;12.65;100.00
7168;BME280;3625;51.762;14.320;2023-10-31T03:21:48;98540.16;;;12.66;100.00
7168;BME280;3625;51.762;14.320;2023-10-31T03:24:16;98535.88;;;12.64;100.00
7168;BME280;3625;51.762;14.320;2023-10-31T03:26:45;98534.94;;;12.65;100.00
7168;BME280;3625;51.762;14.320;2023-10-31T03:29:14;98538.53;;;12.64;100.00
7168;BME280;3625;51.762;14.320;2023-10-31T03:31:44;98542.13;;;12.63;100.00
7168;BME280;3625;51.762;14.320;2023-10-31T03:34:13;98541.28;;;12.62;100.00
7168;BME280;3625;51.762;14.320;2023-10-31T03:36:41;98552.84;;;12.61;100.00
7168;BME280;3625;51.762;14.320;2023-10-31T03:39:10;98550.19;;;12.61;100.00
7168;BME280;3625;51.762;14.320;2023-10-31T03:41:39;98548.41;;;12.62;100.00
7168;BME280;3625;51.762;14.320;2023-10-31T03:44:10;98552.72;;;12.63;100.00
7168;BME280;3625;51.762;14.320;2023-10-31T03:46:38;98551.69;;;12.65;100.00
7168;BME280;3625;51.762;14.320;2023-10-31T03:49:09;98549.81;;;12.67;100.00
7168;BME280;3625;51.762;14.320;2023-10-31T03:51:37;98544.41;;;12.69;100.00
7168;BME280;3625;51.762;14.320;2023-10-31T03:54:07;98554.72;;;12.73;100.00
7168;BME280;3625;51.762;14.320;2023-10-31T03:56:39;98552.53;;;12.80;100.00
7168;BME280;3625;51.762;14.320;2023-10-31T03:59:08;98557.50;;;12.86;100.00
7168;BME280;3625;51.762;14.320;2023-10-31T04:01:37;98546.66;;;12.89;100.00
7168;BME280;3625;51.762;14.320;2023-10-31T04:04:08;98561.47;;;12.93;100.00
7168;BME280;3625;51.762;14.320;2023-10-31T04:06:37;98563.81;;;12.98;100.00
7168;BME280;3625;51.762;14.320;2023-10-31T04:09:08;98563.66;;;13.01;100.00
7168;BME280;3625;51.762;14.320;2023-10-31T04:11:37;98569.63;;;13.04;100.00
7168;BME280;3625;51.762;14.320;2023-10-31T04:14:07;98572.06;;;13.07;100.00
7168;BME280;3625;51.762;14.320;2023-10-31T04:16:38;98567.34;;;13.12;100.00
7168;BME280;3625;51.762;14.320;2023-10-31T04:19:09;98568.03;;;13.16;100.00
7168;BME280;3625;51.762;14.320;2023-10-31T04:21:37;98566.03;;;13.19;100.00
7168;BME280;3625;51.762;14.320;2023-10-31T04:24:07;98567.75;;;13.20;100.00
7168;BME280;3625;51.762;14.320;2023-10-31T04:26:35;98569.53;;;13.20;100.00
7168;BME280;3625;51.762;14.320;2023-10-31T04:29:04;98568.69;;;13.19;100.00
7168;BME280;3625;51.762;14.320;2023-10-31T04:31:33;98566.88;;;13.20;100.00
7168;BME280;3625;51.762;14.320;2023-10-31T04:34:12;98565.09;;;13.20;100.00
7168;BME280;3625;51.762;14.320;2023-10-31T04:36:41;98555.50;;;13.18;100.00
7168;BME280;3625;51.762;14.320;2023-10-31T04:39:09;98550.19;;;13.18;100.00
7168;BME280;3625;51.762;14.320;2023-10-31T04:41:38;98554.47;;;13.20;100.00
7168;BME280;3625;51.762;14.320;2023-10-31T04:44:07;98542.22;;;13.18;100.00
7168;BME280;3625;51.762;14.320;2023-10-31T04:46:36;98544.88;;;13.18;100.00
7168;BME280;3625;51.762;14.320;2023-10-31T04:49:05;98541.47;;;13.16;100.00
7168;BME280;3625;51.762;14.320;2023-10-31T04:51:35;98533.63;;;13.14;100.00
7168;BME280;3625;51.762;14.320;2023-10-31T04:54:04;98530.97;;;13.14;100.00
7168;BME280;3625;51.762;14.320;2023-10-31T04:56:34;98526.50;;;13.15;100.00
7168;BME280;3625;51.762;14.320;2023-10-31T04:59:03;98533.63;;;13.14;100.00
7168;BME280;3625;51.762;14.320;2023-10-31T05:01:32;98537.09;;;13.15;100.00
7168;BME280;3625;51.762;14.320;2023-10-31T05:04:01;98553.78;;;13.17;100.00
7168;BME280;3625;51.762;14.320;2023-10-31T05:06:41;98552.94;;;13.16;100.00
7168;BME280;3625;51.762;14.320;2023-10-31T05:09:09;98558.25;;;13.16;100.00
7168;BME280;3625;51.762;14.320;2023-10-31T05:11:39;98570.59;;;13.17;100.00
7168;BME280;3625;51.762;14.320;2023-10-31T05:14:09;98568.88;;;13.16;100.00
7168;BME280;3625;51.762;14.320;2023-10-31T05:16:42;98578.63;;;13.16;100.00
7168;BME280;3625;51.762;14.320;2023-10-31T05:19:11;98581.19;;;13.17;100.00
7168;BME280;3625;51.762;14.320;2023-10-31T05:21:41;98577.69;;;13.17;100.00
7168;BME280;3625;51.762;14.320;2023-10-31T05:24:10;98582.91;;;13.18;100.00
7168;BME280;3625;51.762;14.320;2023-10-31T05:26:40;98581.19;;;13.17;100.00
7168;BME280;3625;51.762;14.320;2023-10-31T05:29:09;98581.28;;;13.16;100.00
7168;BME280;3625;51.762;14.320;2023-10-31T05:31:38;98592.03;;;13.14;100.00
7168;BME280;3625;51.762;14.320;2023-10-31T05:34:07;98597.34;;;13.14;100.00
7168;BME280;3625;51.762;14.320;2023-10-31T05:36:35;98600.06;;;13.13;100.00
7168;BME280;3625;51.762;14.320;2023-10-31T05:39:05;98596.50;;;13.14;100.00
7168;BME280;3625;51.762;14.320;2023-10-31T05:41:35;98602.81;;;13.11;100.00
7168;BME280;3625;51.762;14.320;2023-10-31T05:44:04;98604.59;;;13.11;100.00
7168;BME280;3625;51.762;14.320;2023-10-31T05:46:38;98611.63;;;13.12;100.00
7168;BME280;3625;51.762;14.320;2023-10-31T05:49:07;98601.09;;;13.10;100.00
7168;BME280;3625;51.762;14.320;2023-10-31T05:51:36;98604.50;;;13.12;100.00
7168;BME280;3625;51.762;14.320;2023-10-31T05:54:07;98608.91;;;13.13;100.00
7168;BME280;3625;51.762;14.320;2023-10-31T05:56:36;98612.41;;;13.14;100.00
7168;BME280;3625;51.762;14.320;2023-10-31T05:59:05;98618.72;;;13.11;100.00
7168;BME280;3625;51.762;14.320;2023-10-31T06:01:34;98616.94;;;13.12;100.00
7168;BME280;3625;51.762;14.320;2023-10-31T06:04:03;98621.47;;;13.10;100.00
7168;BME280;3625;51.762;14.320;2023-10-31T06:06:33;98625.84;;;13.11;100.00
7168;BME280;3625;51.762;14.320;2023-10-31T06:09:07;98636.38;;;13.12;100.00
7168;BME280;3625;51.762;14.320;2023-10-31T06:11:36;98641.78;;;13.11;100.00
7168;BME280;3625;51.762;14.320;2023-10-31T06:14:05;98648.03;;;13.10;100.00
7168;BME280;3625;51.762;14.320;2023-10-31T06:16:39;98649.72;;;13.11;100.00
7168;BME280;3625;51.762;14.320;2023-10-31T06:19:07;98655.03;;;13.11;100.00
7168;BME280;3625;51.762;14.320;2023-10-31T06:21:36;98655.31;;;13.06;100.00
7168;BME280;3625;51.762;14.320;2023-10-31T06:24:07;98657.88;;;13.08;100.00
7168;BME280;3625;51.762;14.320;2023-10-31T06:26:36;98658.56;;;13.11;100.00
7168;BME280;3625;51.762;14.320;2023-10-31T06:29:06;98667.38;;;13.12;100.00
7168;BME280;3625;51.762;14.320;2023-10-31T06:31:55;98663.72;;;13.14;100.00
7168;BME280;3625;51.762;14.320;2023-10-31T06:34:24;98663.59;;;13.16;100.00
7168;BME280;3625;51.762;14.320;2023-10-31T06:36:53;98670.44;;;13.20;100.00
7168;BME280;3625;51.762;14.320;2023-10-31T06:39:23;98674.72;;;13.23;100.00
7168;BME280;3625;51.762;14.320;2023-10-31T06:41:55;98679.06;;;13.23;100.00
7168;BME280;3625;51.762;14.320;2023-10-31T06:44:25;98689.81;;;13.22;100.00
7168;BME280;3625;51.762;14.320;2023-10-31T06:46:54;98690.91;;;13.18;100.00
7168;BME280;3625;51.762;14.320;2023-10-31T06:49:23;98692.44;;;13.22;100.00
7168;BME280;3625;51.762;14.320;2023-10-31T06:51:52;98694.91;;;13.25;100.00
7168;BME280;3625;51.762;14.320;2023-10-31T06:54:22;98705.53;;;13.25;100.00
7168;BME280;3625;51.762;14.320;2023-10-31T06:56:51;98711.50;;;13.29;100.00
7168;BME280;3625;51.762;14.320;2023-10-31T06:59:19;98712.16;;;13.32;100.00
7168;BME280;3625;51.762;14.320;2023-10-31T07:01:48;98720.03;;;13.34;100.00
7168;BME280;3625;51.762;14.320;2023-10-31T07:04:18;98711.81;;;13.38;100.00
7168;BME280;3625;51.762;14.320;2023-10-31T07:06:47;98713.41;;;13.41;100.00
7168;BME280;3625;51.762;14.320;2023-10-31T07:09:16;98714.84;;;13.46;100.00
7168;BME280;3625;51.762;14.320;2023-10-31T07:11:46;98718.06;;;13.51;100.00
7168;BME280;3625;51.762;14.320;2023-10-31T07:14:15;98728.91;;;13.48;100.00
7168;BME280;3625;51.762;14.320;2023-10-31T07:16:44;98732.88;;;13.55;100.00
7168;BME280;3625;51.762;14.320;2023-10-31T07:19:13;98730.59;;;13.64;100.00
7168;BME280;3625;51.762;14.320;2023-10-31T07:21:42;98724.97;;;13.68;100.00
7168;BME280;3625;51.762;14.320;2023-10-31T07:24:10;98731.34;;;13.80;100.00
7168;BME280;3625;51.762;14.320;2023-10-31T07:26:39;98731.34;;;13.80;100.00
7168;BME280;3625;51.762;14.320;2023-10-31T07:29:09;98734.84;;;13.80;100.00
7168;BME280;3625;51.762;14.320;2023-10-31T07:31:39;98733.22;;;13.78;100.00
7168;BME280;3625;51.762;14.320;2023-10-31T07:34:07;98741.97;;;13.80;100.00
7168;BME280;3625;51.762;14.320;2023-10-31T07:36:38;98748.22;;;13.79;100.00
7168;BME280;3625;51.762;14.320;2023-10-31T07:39:08;98756.19;;;13.79;100.00
7168;BME280;3625;51.762;14.320;2023-10-31T07:41:37;98760.19;;;13.72;100.00
7168;BME280;3625;51.762;14.320;2023-10-31T07:44:11;98768.16;;;13.72;100.00
7168;BME280;3625;51.762;14.320;2023-10-31T07:46:42;98756.13;;;13.66;100.00
7168;BME280;3625;51.762;14.320;2023-10-31T07:49:13;98770.25;;;13.67;100.00
7168;BME280;3625;51.762;14.320;2023-10-31T07:51:42;98758.56;;;13.69;100.00
7168;BME280;3625;51.762;14.320;2023-10-31T07:54:15;98762.56;;;13.76;100.00
7168;BME280;3625;51.762;14.320;2023-10-31T07:56:45;98764.19;;;13.79;100.00
7168;BME280;3625;51.762;14.320;2023-10-31T07:59:17;98773.84;;;13.80;100.00
7168;BME280;3625;51.762;14.320;2023-10-31T08:01:46;98788.56;;;13.85;100.00
7168;BME280;3625;51.762;14.320;2023-10-31T08:04:19;98787.81;;;13.83;100.00
7168;BME280;3625;51.762;14.320;2023-10-31T08:06:48;98802.72;;;13.72;100.00
7168;BME280;3625;51.762;14.320;2023-10-31T08:09:16;98799.03;;;13.74;100.00
7168;BME280;3625;51.762;14.320;2023-10-31T08:11:45;98814.28;;;13.71;100.00
7168;BME280;3625;51.762;14.320;2023-10-31T08:14:15;98814.19;;;13.72;100.00
7168;BME280;3625;51.762;14.320;2023-10-31T08:16:44;98819.44;;;13.74;100.00
7168;BME280;3625;51.762;14.320;2023-10-31T08:19:13;98813.06;;;13.76;100.00
7168;BME280;3625;51.762;14.320;2023-10-31T08:21:43;98824.75;;;13.74;100.00
7168;BME280;3625;51.762;14.320;2023-10-31T08:24:12;98832.97;;;13.69;100.00
7168;BME280;3625;51.762;14.320;2023-10-31T08:26:41;98835.56;;;13.71;100.00
7168;BME280;3625;51.762;14.320;2023-10-31T08:29:09;98846.19;;;13.71;100.00
7168;BME280;3625;51.762;14.320;2023-10-31T08:31:40;98857.75;;;13.70;100.00
7168;BME280;3625;51.762;14.320;2023-10-31T08:34:09;98853.22;;;13.72;100.00
7168;BME280;3625;51.762;14.320;2023-10-31T08:36:41;98860.25;;;13.73;100.00
7168;BME280;3625;51.762;14.320;2023-10-31T08:39:10;98868.47;;;13.68;100.00
7168;BME280;3625;51.762;14.320;2023-10-31T08:41:50;98865.63;;;13.71;100.00
7168;BME280;3625;51.762;14.320;2023-10-31T08:44:19;98860.72;;;13.79;100.00
7168;BME280;3625;51.762;14.320;2023-10-31T08:46:49;98871.91;;;13.84;100.00
7168;BME280;3625;51.762;14.320;2023-10-31T08:49:18;98872.97;;;13.96;100.00
7168;BME280;3625;51.762;14.320;2023-10-31T08:51:47;98874.69;;;14.11;100.00
7168;BME280;3625;51.762;14.320;2023-10-31T08:54:16;98866.22;;;14.19;100.00
7168;BME280;3625;51.762;14.320;2023-10-31T08:56:45;98874.69;;;14.25;100.00
7168;BME280;3625;51.762;14.320;2023-10-31T08:59:15;98879.72;;;14.30;100.00
7168;BME280;3625;51.762;14.320;2023-10-31T09:01:44;98887.03;;;14.55;100.00
7168;BME280;3625;51.762;14.320;2023-10-31T09:04:16;98891.84;;;14.77;100.00
7168;BME280;3625;51.762;14.320;2023-10-31T09:06:51;98889.34;;;14.88;100.00
7168;BME280;3625;51.762;14.320;2023-10-31T09:09:20;98898.53;;;14.96;100.00
7168;BME280;3625;51.762;14.320;2023-10-31T09:11:48;98908.41;;;15.08;100.00
7168;BME280;3625;51.762;14.320;2023-10-31T09:14:17;98912.00;;;15.07;100.00
7168;BME280;3625;51.762;14.320;2023-10-31T09:16:47;98924.19;;;15.12;100.00
7168;BME280;3625;51.762;14.320;2023-10-31T09:19:17;98918.97;;;15.10;100.00
7168;BME280;3625;51.762;14.320;2023-10-31T09:21:47;98914.13;;;15.02;100.00
7168;BME280;3625;51.762;14.320;2023-10-31T09:24:18;98931.88;;;14.75;100.00
7168;BME280;3625;51.762;14.320;2023-10-31T09:26:47;98923.06;;;14.46;100.00
7168;BME280;3625;51.762;14.320;2023-10-31T09:29:15;98934.25;;;14.37;100.00
7168;BME280;3625;51.762;14.320;2023-10-31T09:31:56;98937.91;;;14.50;100.00
7168;BME280;3625;51.762;14.320;2023-10-31T09:34:26;98934.47;;;14.48;100.00
7168;BME280;3625;51.762;14.320;2023-10-31T09:36:55;98934.38;;;14.35;100.00
7168;BME280;3625;51.762;14.320;2023-10-31T09:39:24;98948.25;;;14.41;100.00
7168;BME280;3625;51.762;14.320;2023-10-31T09:41:53;98953.78;;;14.52;100.00
7168;BME280;3625;51.762;14.320;2023-10-31T09:44:23;98967.91;;;14.81;100.00
7168;BME280;3625;51.762;14.320;2023-10-31T09:46:53;98952.53;;;15.13;100.00
7168;BME280;3625;51.762;14.320;2023-10-31T09:49:22;98957.66;;;15.16;100.00
7168;BME280;3625;51.762;14.320;2023-10-31T09:51:53;98952.41;;;14.87;100.00
7168;BME280;3625;51.762;14.320;2023-10-31T09:54:22;98962.03;;;14.61;100.00
7168;BME280;3625;51.762;14.320;2023-10-31T09:56:52;98977.03;;;14.34;100.00
7168;BME280;3625;51.762;14.320;2023-10-31T09:59:20;98965.31;;;14.22;100.00
7168;BME280;3625;51.762;14.320;2023-10-31T10:01:49;98972.53;;;14.20;100.00
7168;BME280;3625;51.762;14.320;2023-10-31T10:04:18;98964.06;;;14.28;100.00
7168;BME280;3625;51.762;14.320;2023-10-31T10:06:59;98963.50;;;14.37;100.00
7168;BME280;3625;51.762;14.320;2023-10-31T10:09:29;98968.78;;;14.39;100.00
7168;BME280;3625;51.762;14.320;2023-10-31T10:12:01;98983.31;;;14.47;100.00
7168;BME280;3625;51.762;14.320;2023-10-31T10:14:30;98974.28;;;14.50;100.00
7168;BME280;3625;51.762;14.320;2023-10-31T10:16:59;98979.63;;;14.50;100.00
7168;BME280;3625;51.762;14.320;2023-10-31T10:19:30;98981.88;;;14.56;100.00
7168;BME280;3625;51.762;14.320;2023-10-31T10:22:00;98992.34;;;14.87;100.00
7168;BME280;3625;51.762;14.320;2023-10-31T10:24:29;98987.53;;;15.06;100.00
7168;BME280;3625;51.762;14.320;2023-10-31T10:26:58;98995.91;;;15.41;100.00
7168;BME280;3625;51.762;14.320;2023-10-31T10:29:27;98991.38;;;15.70;100.00
7168;BME280;3625;51.762;14.320;2023-10-31T10:31:56;99011.66;;;15.73;100.00
7168;BME280;3625;51.762;14.320;2023-10-31T10:34:25;99004.69;;;15.97;100.00
7168;BME280;3625;51.762;14.320;2023-10-31T10:36:55;99012.34;;;16.02;100.00
7168;BME280;3625;51.762;14.320;2023-10-31T10:39:25;99027.88;;;16.22;100.00
7168;BME280;3625;51.762;14.320;2023-10-31T10:41:55;99022.56;;;16.47;100.00
7168;BME280;3625;51.762;14.320;2023-10-31T10:44:37;99017.66;;;16.41;96.55
7168;BME280;3625;51.762;14.320;2023-10-31T10:47:13;99028.88;;;16.59;97.74
7168;BME280;3625;51.762;14.320;2023-10-31T10:49:42;99022.28;;;16.65;94.95
7168;BME280;3625;51.762;14.320;2023-10-31T10:52:22;99006.44;;;16.62;94.52
7168;BME280;3625;51.762;14.320;2023-10-31T10:54:57;99023.41;;;16.35;95.73
7168;BME280;3625;51.762;14.320;2023-10-31T10:57:36;99027.69;;;16.25;94.87
7168;BME280;3625;51.762;14.320;2023-10-31T11:00:06;99035.41;;;16.68;92.60
7168;BME280;3625;51.762;14.320;2023-10-31T11:02:40;99044.03;;;16.96;90.31
7168;BME280;3625;51.762;14.320;2023-10-31T11:05:10;99060.50;;;17.03;87.99
7168;BME280;3625;51.762;14.320;2023-10-31T11:07:40;99006.31;;;16.38;84.78
7168;BME280;3625;51.762;14.320;2023-10-31T11:10:12;99041.78;;;16.40;84.90
7168;BME280;3625;51.762;14.320;2023-10-31T11:12:40;99025.94;;;16.11;87.03
7168;BME280;3625;51.762;14.320;2023-10-31T11:15:12;99018.91;;;16.23;89.90
7168;BME280;3625;51.762;14.320;2023-10-31T11:17:44;99021.25;;;16.15;89.82
7168;BME280;3625;51.762;14.320;2023-10-31T11:20:16;99021.50;;;15.85;91.16
7168;BME280;3625;51.762;14.320;2023-10-31T11:22:46;98993.25;;;15.56;91.08
7168;BME280;3625;51.762;14.320;2023-10-31T11:25:19;99023.44;;;15.56;90.66
7168;BME280;3625;51.762;14.320;2023-10-31T11:28:11;99017.38;;;15.67;90.75
7168;BME280;3625;51.762;14.320;2023-10-31T11:30:43;99028.09;;;15.79;88.50
7168;BME280;3625;51.762;14.320;2023-10-31T11:33:13;99036.03;;;15.94;91.01
7168;BME280;3625;51.762;14.320;2023-10-31T11:35:42;99040.97;;;16.00;92.13
7168;BME280;3625;51.762;14.320;2023-10-31T11:38:13;99029.78;;;16.20;86.95
7168;BME280;3625;51.762;14.320;2023-10-31T11:40:59;99034.81;;;16.25;85.15
7168;BME280;3625;51.762;14.320;2023-10-31T11:43:51;99037.22;;;16.02;87.15
7168;BME280;3625;51.762;14.320;2023-10-31T11:46:21;99035.31;;;16.04;87.16
7168;BME280;3625;51.762;14.320;2023-10-31T11:48:53;99034.16;;;16.08;88.69
7168;BME280;3625;51.762;14.320;2023-10-31T11:51:27;99031.81;;;16.16;88.39
7168;BME280;3625;51.762;14.320;2023-10-31T11:53:56;99037.56;;;16.10;86.23
7168;BME280;3625;51.762;14.320;2023-10-31T11:56:27;99042.88;;;15.98;87.66
7168;BME280;3625;51.762;14.320;2023-10-31T11:58:57;99059.22;;;16.06;89.18
7168;BME280;3625;51.762;14.320;2023-10-31T12:01:26;99053.44;;;15.99;88.97
7168;BME280;3625;51.762;14.320;2023-10-31T12:03:55;99041.19;;;16.09;86.89
7168;BME280;3625;51.762;14.320;2023-10-31T12:06:24;99039.22;;;16.26;86.05
7168;BME280;3625;51.762;14.320;2023-10-31T12:08:53;99045.28;;;16.28;82.46
7168;BME280;3625;51.762;14.320;2023-10-31T12:11:29;99048.03;;;16.26;81.90
7168;BME280;3625;51.762;14.320;2023-10-31T12:13:59;99051.06;;;16.47;83.64
7168;BME280;3625;51.762;14.320;2023-10-31T12:16:30;99038.16;;;16.01;81.29
7168;BME280;3625;51.762;14.320;2023-10-31T12:19:02;99077.19;;;16.16;82.78
7168;BME280;3625;51.762;14.320;2023-10-31T12:21:36;99073.38;;;15.94;82.08
7168;BME280;3625;51.762;14.320;2023-10-31T12:24:05;99086.44;;;15.84;83.60
7168;BME280;3625;51.762;14.320;2023-10-31T12:26:36;99084.94;;;15.80;86.37
7168;BME280;3625;51.762;14.320;2023-10-31T12:29:12;99093.38;;;15.60;85.38
7168;BME280;3625;51.762;14.320;2023-10-31T12:31:44;99103.00;;;15.62;86.30
7168;BME280;3625;51.762;14.320;2023-10-31T12:34:14;99102.31;;;15.73;86.67
7168;BME280;3625;51.762;14.320;2023-10-31T12:36:50;99110.31;;;15.73;87.84
7168;BME280;3625;51.762;14.320;2023-10-31T12:39:23;99108.75;;;15.56;87.59
7168;BME280;3625;51.762;14.320;2023-10-31T12:41:55;99118.50;;;15.41;89.60
7168;BME280;3625;51.762;14.320;2023-10-31T12:44:29;99110.59;;;15.40;90.65
7168;BME280;3625;51.762;14.320;2023-10-31T12:46:58;99107.69;;;15.30;90.98
7168;BME280;3625;51.762;14.320;2023-10-31T12:49:27;99098.94;;;15.14;91.85
7168;BME280;3625;51.762;14.320;2023-10-31T12:51:57;99087.16;;;15.04;93.39
7168;BME280;3625;51.762;14.320;2023-10-31T12:54:31;99091.44;;;14.92;92.20
7168;BME280;3625;51.762;14.320;2023-10-31T12:57:02;99100.91;;;14.96;91.93
7168;BME280;3625;51.762;14.320;2023-10-31T12:59:32;99105.13;;;15.00;93.41
7168;BME280;3625;51.762;14.320;2023-10-31T13:02:02;99101.34;;;15.04;93.56
7168;BME280;3625;51.762;14.320;2023-10-31T13:04:32;99052.53;;;14.90;92.68
7168;BME280;3625;51.762;14.320;2023-10-31T13:07:03;99111.94;;;15.33;92.19
7168;BME280;3625;51.762;14.320;2023-10-31T13:09:34;99114.06;;;15.28;93.49
7168;BME280;3625;51.762;14.320;2023-10-31T13:12:06;99116.25;;;15.21;95.45
7168;BME280;3625;51.762;14.320;2023-10-31T13:14:35;99120.22;;;15.14;96.18
7168;BME280;3625;51.762;14.320;2023-10-31T13:17:07;99120.94;;;15.03;96.44